Time;durP1;ratioP1;P1;durP2;ratioP2;P2;SDS_P1;SDS_P2;PMS_P1;PMS_P2;Temp;Humidity;BMP_temperature;BMP_pressure;BME280_temperature;BME280_humidity;BME280_pressure;Samples;Min_cycle;Max_cycle;Signal;HPM_P1;HPM_P2
2023/03/31 00:00:56;;;;;;;0.80;0.80;;;;;;;-1.12;83.43;98566.38;4938587;28;20249;-89
2023/03/31 00:03:24;;;;;;;0.93;0.93;;;;;;;-1.23;83.31;98561.53;4955776;28;20047;-89
2023/03/31 00:05:58;;;;;;;0.80;0.80;;;;;;;-1.25;83.67;98552.94;4972176;28;20306;-90
2023/03/31 00:08:28;;;;;;;0.80;0.80;;;;;;;-1.24;84.00;98570.47;4955025;28;20051;-88
2023/03/31 00:11:00;;;;;;;0.80;0.80;;;;;;;-1.25;83.76;98561.69;4954871;28;20113;-88
2023/03/31 00:13:29;;;;;;;0.80;0.80;;;;;;;-1.34;83.66;98555.66;4972372;28;20051;-89
2023/03/31 00:16:00;;;;;;;0.90;0.90;;;;;;;-1.38;83.31;98558.84;4955143;28;20078;-88
2023/03/31 00:18:28;;;;;;;1.00;1.00;;;;;;;-1.35;83.08;98569.88;4957733;28;20089;-88
2023/03/31 00:21:28;;;;;;;0.90;0.90;;;;;;;-1.57;82.93;98557.50;4958255;28;20054;-89
2023/03/31 00:24:01;;;;;;;0.80;0.80;;;;;;;-1.54;83.05;98570.41;4960629;28;20046;-89
2023/03/31 00:26:28;;;;;;;0.77;0.77;;;;;;;-1.65;83.16;98566.31;4975848;28;20514;-88
2023/03/31 00:28:56;;;;;;;0.85;0.85;;;;;;;-1.66;83.69;98554.09;4942683;28;20051;-89
2023/03/31 00:31:23;;;;;;;0.80;0.80;;;;;;;-1.76;83.41;98559.63;4942735;28;20089;-88
2023/03/31 00:33:53;;;;;;;0.80;0.80;;;;;;;-1.81;83.75;98550.56;4942607;28;20453;-90
2023/03/31 00:36:26;;;;;;;1.00;1.00;;;;;;;-1.97;84.09;98554.97;4975041;28;20051;-89
2023/03/31 00:39:01;;;;;;;0.80;0.80;;;;;;;-2.12;84.40;98561.19;4959331;28;20606;-89
2023/03/31 00:41:29;;;;;;;0.88;0.88;;;;;;;-2.20;84.33;98541.75;4958166;28;20072;-89
2023/03/31 00:44:26;;;;;;;0.82;0.82;;;;;;;-2.42;84.33;98516.91;4957879;28;20053;-87
2023/03/31 00:47:01;;;;;;;1.00;1.00;;;;;;;-2.37;84.33;98556.03;4846943;29;20152;-88
2023/03/31 00:49:39;;;;;;;0.80;0.80;;;;;;;-2.63;84.79;98532.53;4878827;29;20057;-88
2023/03/31 00:52:09;;;;;;;1.00;1.00;;;;;;;-2.47;84.86;98560.72;4878837;29;20157;-88
2023/03/31 00:54:37;;;;;;;0.70;0.70;;;;;;;-2.65;85.16;98527.41;4878619;29;20049;-88
2023/03/31 00:57:05;;;;;;;0.80;0.80;;;;;;;-2.49;84.66;98549.47;4868530;29;20073;-88
2023/03/31 00:59:37;;;;;;;0.77;0.77;;;;;;;-2.73;84.78;98519.53;4876815;29;20053;-89
2023/03/31 01:02:04;;;;;;;1.02;1.02;;;;;;;-2.64;85.23;98529.06;4855542;29;20076;-88
2023/03/31 01:04:38;;;;;;;0.63;0.63;;;;;;;-2.49;84.78;98545.00;4862968;29;20524;-89
2023/03/31 01:07:18;;;;;;;0.68;0.68;;;;;;;-2.51;84.68;98548.81;4843725;29;20164;-87
2023/03/31 01:09:46;;;;;;;0.80;0.80;;;;;;;-2.62;84.85;98532.34;4858710;29;20509;-88
2023/03/31 01:12:16;;;;;;;0.70;0.70;;;;;;;-2.55;84.85;98537.78;4828988;29;20065;-88
2023/03/31 01:14:43;;;;;;;0.80;0.80;;;;;;;-2.68;85.11;98517.19;4858898;29;20132;-89
2023/03/31 01:17:17;;;;;;;0.80;0.80;;;;;;;-2.73;85.31;98498.41;4859394;29;20537;-86
2023/03/31 01:20:17;;;;;;;0.93;0.93;;;;;;;-2.46;85.21;98520.88;4846265;29;20089;-88
2023/03/31 01:23:04;;;;;;;0.80;0.80;;;;;;;-2.45;84.95;98514.63;4878570;29;20045;-87
2023/03/31 01:25:53;;;;;;;0.80;0.80;;;;;;;-2.48;84.95;98514.97;4948197;29;20055;-87
2023/03/31 01:28:43;;;;;;;0.80;0.80;;;;;;;-2.51;85.30;98510.00;4944047;28;20150;-89
2023/03/31 01:31:29;;;;;;;0.93;0.93;;;;;;;-2.51;85.62;98515.28;4882043;29;20177;-88
2023/03/31 01:34:14;;;;;;;0.70;0.70;;;;;;;-2.65;85.36;98479.88;4877286;29;20147;-89
2023/03/31 01:37:08;;;;;;;0.90;0.90;;;;;;;-2.57;85.58;98501.97;4877362;29;20491;-89
2023/03/31 01:39:53;;;;;;;0.90;0.90;;;;;;;-2.64;86.06;98497.34;4861223;29;20144;-89
2023/03/31 01:42:31;;;;;;;0.85;0.85;;;;;;;-2.68;86.37;98496.06;4877259;29;20069;-90
2023/03/31 01:45:11;;;;;;;0.90;0.90;;;;;;;-2.78;86.34;98498.09;4873842;29;20063;-89
2023/03/31 01:47:58;;;;;;;1.10;1.10;;;;;;;-2.76;86.86;98497.91;4879585;29;20194;-88
2023/03/31 01:50:45;;;;;;;0.85;0.85;;;;;;;-2.73;87.17;98502.88;4879629;29;20064;-89
2023/03/31 01:53:30;;;;;;;0.98;0.98;;;;;;;-2.62;86.87;98499.84;4864357;29;20147;-88
2023/03/31 01:56:14;;;;;;;0.83;0.83;;;;;;;-2.58;86.81;98492.38;4895287;29;20064;-88
2023/03/31 01:58:46;;;;;;;0.70;0.70;;;;;;;-2.50;86.83;98502.91;4879568;29;20197;-88
2023/03/31 02:01:36;;;;;;;0.80;0.80;;;;;;;-2.37;86.97;98503.19;4880042;29;20309;-90
2023/03/31 02:04:30;;;;;;;0.98;0.98;;;;;;;-2.24;86.41;98502.59;4849860;29;20053;-88
2023/03/31 02:07:02;;;;;;;0.80;0.80;;;;;;;-2.34;86.39;98481.69;4862885;29;20052;-89
2023/03/31 02:09:33;;;;;;;1.00;1.00;;;;;;;-2.21;86.00;98499.59;4941050;28;20082;-88
2023/03/31 02:12:05;;;;;;;0.63;0.63;;;;;;;-2.22;86.02;98484.75;4940741;28;20077;-89
2023/03/31 02:14:33;;;;;;;0.80;0.80;;;;;;;-2.25;85.85;98480.63;4940689;28;20282;-90
2023/03/31 02:17:02;;;;;;;0.80;0.80;;;;;;;-2.27;85.89;98481.81;4973133;28;20054;-88
2023/03/31 02:19:33;;;;;;;0.90;0.90;;;;;;;-2.35;86.21;98479.22;4940793;28;20074;-89
2023/03/31 02:22:02;;;;;;;0.90;0.90;;;;;;;-2.44;86.21;98483.72;4974826;28;20055;-89
2023/03/31 02:24:30;;;;;;;0.75;0.75;;;;;;;-2.43;86.39;98491.47;4975337;28;20059;-88
2023/03/31 02:27:05;;;;;;;0.70;0.70;;;;;;;-2.46;86.34;98477.78;4924526;28;20453;-88
2023/03/31 02:29:33;;;;;;;0.95;0.95;;;;;;;-2.41;86.10;98500.03;4955789;28;20528;-88
2023/03/31 02:32:15;;;;;;;1.00;1.00;;;;;;;-2.53;86.37;98480.31;4956079;28;20061;-89
2023/03/31 02:34:42;;;;;;;0.90;0.90;;;;;;;-2.71;86.89;98477.06;4972824;28;20142;-88
2023/03/31 02:37:10;;;;;;;0.75;0.75;;;;;;;-2.78;87.00;98470.88;4973435;28;20486;-89
2023/03/31 02:39:39;;;;;;;1.05;1.05;;;;;;;-2.68;86.95;98496.06;4955471;28;20497;-89
2023/03/31 02:42:07;;;;;;;1.10;1.10;;;;;;;-2.70;87.53;98510.44;4940394;28;20047;-89
2023/03/31 02:44:38;;;;;;;0.90;0.90;;;;;;;-2.67;87.89;98502.16;4924388;28;20497;-88
2023/03/31 02:47:12;;;;;;;0.82;0.82;;;;;;;-2.54;87.77;98515.63;4973514;28;20416;-90
2023/03/31 02:49:55;;;;;;;0.82;0.82;;;;;;;-2.59;87.64;98498.66;4956524;28;20089;-90
2023/03/31 02:52:33;;;;;;;0.90;0.90;;;;;;;-2.50;87.65;98509.03;4913126;28;20050;-90
2023/03/31 02:55:22;;;;;;;0.73;0.73;;;;;;;-2.63;87.61;98493.72;4966267;28;20050;-89
2023/03/31 02:58:17;;;;;;;0.90;0.90;;;;;;;-2.59;87.88;98501.31;4950585;28;20114;-88
2023/03/31 03:00:51;;;;;;;1.00;1.00;;;;;;;-2.70;88.08;98498.06;4954424;28;20051;-89
2023/03/31 03:03:30;;;;;;;0.90;0.90;;;;;;;-2.75;88.32;98495.09;4942659;28;20050;-89
2023/03/31 03:06:29;;;;;;;0.63;0.63;;;;;;;-2.74;88.66;98499.38;4954027;28;20170;-87
2023/03/31 03:09:11;;;;;;;0.90;0.90;;;;;;;-2.72;88.62;98505.31;4941911;28;20078;-88
2023/03/31 03:12:14;;;;;;;0.75;0.75;;;;;;;-2.73;88.40;98498.41;4939955;28;20102;-88
2023/03/31 03:14:46;;;;;;;1.00;1.00;;;;;;;-2.72;88.61;98496.56;4861098;29;20124;-89
2023/03/31 03:17:38;;;;;;;0.88;0.88;;;;;;;-2.68;88.71;98495.25;4879330;29;20523;-89
2023/03/31 03:20:08;;;;;;;0.85;0.85;;;;;;;-2.78;88.72;98482.25;4877474;29;20215;-88
2023/03/31 03:22:38;;;;;;;0.80;0.80;;;;;;;-2.80;88.64;98480.78;4854529;29;20116;-88
2023/03/31 03:25:08;;;;;;;0.90;0.90;;;;;;;-2.87;89.41;98475.34;4883718;29;20140;-88
2023/03/31 03:27:36;;;;;;;0.80;0.80;;;;;;;-2.83;89.41;98477.47;4879690;29;20093;-88
2023/03/31 03:30:05;;;;;;;0.80;0.80;;;;;;;-2.87;89.47;98467.41;4879955;29;20151;-88
2023/03/31 03:32:32;;;;;;;0.82;0.82;;;;;;;-3.02;89.44;98446.19;4845770;29;20097;-90
2023/03/31 03:35:00;;;;;;;0.73;0.73;;;;;;;-2.93;89.42;98462.84;4875106;29;20059;-90
2023/03/31 03:37:28;;;;;;;0.85;0.85;;;;;;;-3.02;89.71;98456.75;4875932;29;20125;-90
2023/03/31 03:39:55;;;;;;;0.75;0.75;;;;;;;-2.96;89.72;98457.88;4859943;29;20863;-91
2023/03/31 03:42:22;;;;;;;0.90;0.90;;;;;;;-2.97;89.85;98462.34;4860706;29;20053;-91
2023/03/31 03:44:52;;;;;;;0.80;0.80;;;;;;;-3.05;89.80;98439.44;4845043;29;20124;-89
2023/03/31 03:47:19;;;;;;;0.88;0.88;;;;;;;-2.93;89.55;98455.72;4876053;29;20567;-89
2023/03/31 03:49:47;;;;;;;1.00;1.00;;;;;;;-3.00;89.19;98438.94;4876150;29;20603;-91
2023/03/31 03:52:15;;;;;;;0.95;0.95;;;;;;;-2.91;89.00;98447.63;4957060;28;20043;-91
2023/03/31 03:54:42;;;;;;;0.80;0.80;;;;;;;-2.89;88.95;98446.44;4936253;29;20119;-90
2023/03/31 03:57:10;;;;;;;0.88;0.88;;;;;;;-2.94;88.67;98432.13;4904729;29;20158;-88
2023/03/31 03:59:37;;;;;;;0.80;0.80;;;;;;;-2.99;88.95;98437.09;4903892;29;20183;-90
2023/03/31 04:02:05;;;;;;;1.00;1.00;;;;;;;-2.82;88.70;98430.75;4934525;29;20047;-90
2023/03/31 04:04:32;;;;;;;0.95;0.95;;;;;;;-2.86;88.75;98414.44;4920070;29;20094;-91
2023/03/31 04:07:00;;;;;;;1.00;1.00;;;;;;;-2.79;88.09;98424.31;4919580;29;20151;-89
2023/03/31 04:09:28;;;;;;;1.00;1.00;;;;;;;-2.94;88.11;98403.09;4919628;29;20055;-89
2023/03/31 04:11:55;;;;;;;0.88;0.88;;;;;;;-2.77;87.83;98425.78;4896345;29;20562;-89
2023/03/31 04:14:24;;;;;;;0.90;0.90;;;;;;;-2.85;87.73;98413.44;4916851;29;20451;-90
2023/03/31 04:16:51;;;;;;;0.80;0.80;;;;;;;-2.82;88.05;98422.81;4926612;29;20056;-91
2023/03/31 04:19:26;;;;;;;0.90;0.90;;;;;;;-2.94;87.81;98392.53;4912782;29;20491;-92
2023/03/31 04:22:10;;;;;;;0.95;0.95;;;;;;;-2.90;87.45;98383.28;4876232;29;20079;-92
2023/03/31 04:24:57;;;;;;;0.73;0.73;;;;;;;-2.76;87.41;98403.66;4919629;28;20097;-95
2023/03/31 04:27:54;;;;;;;;;;;;;;;-2.71;87.66;98398.69;4889702;29;20072;-92
2023/03/31 04:30:29;;;;;;;0.88;0.88;;;;;;;-2.96;87.67;98371.59;4865302;29;19928;-93
2023/03/31 04:32:59;;;;;;;0.90;0.90;;;;;;;-2.77;87.74;98391.44;4844378;29;20081;-94
2023/03/31 04:36:16;;;;;;;0.80;0.80;;;;;;;-2.79;87.71;98388.13;4832325;29;20148;-89
2023/03/31 04:38:32;;;;;;;0.65;0.65;;;;;;;-2.68;87.84;98384.31;4838028;29;20085;-90
2023/03/31 04:41:02;;;;;;;0.80;0.80;;;;;;;-2.42;87.46;98394.53;4858529;29;20493;-94
2023/03/31 04:43:33;;;;;;;0.70;0.70;;;;;;;-2.40;87.40;98397.81;4830304;29;20063;-87
2023/03/31 04:46:00;;;;;;;0.80;0.80;;;;;;;-2.35;87.05;98390.19;4859253;29;20408;-86
2023/03/31 04:48:28;;;;;;;1.00;1.00;;;;;;;-2.23;86.91;98385.28;4879039;29;20120;-89
2023/03/31 04:50:55;;;;;;;0.90;0.90;;;;;;;-2.15;86.82;98403.75;4882695;29;20438;-89
2023/03/31 04:53:22;;;;;;;1.00;1.00;;;;;;;-2.27;86.98;98405.16;4860392;29;20060;-92
2023/03/31 04:55:49;;;;;;;0.80;0.80;;;;;;;-2.28;86.88;98385.84;4861385;29;20096;-86
2023/03/31 04:58:22;;;;;;;0.90;0.90;;;;;;;-2.09;86.98;98386.34;4860306;29;20140;-88
2023/03/31 05:00:54;;;;;;;0.88;0.88;;;;;;;-2.06;86.89;98370.91;4860723;29;20117;-88
2023/03/31 05:03:24;;;;;;;1.00;1.00;;;;;;;-1.81;86.91;98395.31;4849365;29;20061;-89
2023/03/31 05:05:53;;;;;;;0.80;0.80;;;;;;;-1.68;86.62;98394.69;4866999;29;20049;-89
2023/03/31 05:08:20;;;;;;;0.80;0.80;;;;;;;-1.54;86.46;98401.03;4867766;29;20077;-89
2023/03/31 05:10:50;;;;;;;0.80;0.80;;;;;;;-1.42;86.01;98398.72;4514441;29;9999778;-87
2023/03/31 05:13:20;;;;;;;0.90;0.90;;;;;;;-1.36;85.53;98388.22;4896146;29;20044;-89
2023/03/31 05:15:49;;;;;;;0.93;0.93;;;;;;;-1.37;85.29;98389.25;4914711;29;20345;-88
2023/03/31 05:18:17;;;;;;;0.80;0.80;;;;;;;-1.12;84.67;98404.81;4916838;29;20527;-90
2023/03/31 05:20:45;;;;;;;0.90;0.90;;;;;;;-1.17;84.59;98391.31;4924463;29;20047;-88
2023/03/31 05:23:13;;;;;;;1.00;1.00;;;;;;;-1.13;84.44;98397.91;4939940;29;20051;-89
2023/03/31 05:25:41;;;;;;;0.88;0.88;;;;;;;-0.98;83.81;98389.94;4923399;29;20051;-89
2023/03/31 05:28:11;;;;;;;1.00;1.00;;;;;;;-1.04;83.74;98380.06;4956714;29;20054;-89
2023/03/31 05:30:38;;;;;;;0.80;0.80;;;;;;;-0.90;83.54;98401.25;4956782;29;20047;-89
2023/03/31 05:33:05;;;;;;;1.00;1.00;;;;;;;-0.81;83.20;98395.81;4940316;29;20058;-88
2023/03/31 05:35:33;;;;;;;0.80;0.80;;;;;;;-0.80;83.19;98393.00;4956635;28;20122;-90
2023/03/31 05:38:00;;;;;;;0.90;0.90;;;;;;;-0.83;83.22;98382.78;4924416;29;20059;-90
2023/03/31 05:40:27;;;;;;;1.00;1.00;;;;;;;-0.77;82.92;98389.97;4938791;29;20506;-89
2023/03/31 05:42:56;;;;;;;1.00;1.00;;;;;;;-0.74;82.54;98378.19;4924408;29;20157;-89
2023/03/31 05:45:23;;;;;;;1.00;1.00;;;;;;;-0.58;82.34;98387.72;4938952;29;20054;-88
2023/03/31 05:47:50;;;;;;;0.77;0.77;;;;;;;-0.53;82.06;98375.56;4939758;29;20057;-88
2023/03/31 05:50:17;;;;;;;0.90;0.90;;;;;;;-0.53;82.14;98387.97;4907908;29;20075;-89
2023/03/31 05:52:44;;;;;;;0.82;0.82;;;;;;;-0.59;82.07;98372.84;4955465;29;20130;-89
2023/03/31 05:55:12;;;;;;;0.98;0.98;;;;;;;-0.55;82.04;98371.47;4938832;29;20055;-90
2023/03/31 05:57:39;;;;;;;0.95;0.95;;;;;;;-0.45;82.01;98366.66;4938857;29;20557;-89
2023/03/31 06:00:09;;;;;;;0.93;0.93;;;;;;;-0.41;81.94;98367.09;4938143;29;20158;-89
2023/03/31 06:02:36;;;;;;;0.90;0.90;;;;;;;-0.36;81.94;98362.03;4955318;29;20058;-91
2023/03/31 06:05:04;;;;;;;0.95;0.95;;;;;;;-0.21;81.67;98360.13;4938451;29;20058;-89
2023/03/31 06:07:31;;;;;;;1.10;1.10;;;;;;;-0.15;80.98;98371.81;4938940;29;20079;-90
2023/03/31 06:09:58;;;;;;;1.00;1.00;;;;;;;-0.25;80.85;98351.75;4939506;28;20055;-88
2023/03/31 06:12:25;;;;;;;1.10;1.10;;;;;;;-0.14;80.59;98357.56;4927148;28;20221;-88
2023/03/31 06:14:52;;;;;;;1.08;1.08;;;;;;;-0.16;80.50;98341.81;4931794;28;20051;-90
2023/03/31 06:17:19;;;;;;;1.00;1.00;;;;;;;0.14;80.30;98354.91;4966937;28;20082;-91
2023/03/31 06:19:47;;;;;;;1.00;1.00;;;;;;;0.29;79.87;98366.22;4944293;28;20042;-88
2023/03/31 06:22:13;;;;;;;1.00;1.00;;;;;;;0.45;79.29;98386.34;4972833;28;20043;-89
2023/03/31 06:24:41;;;;;;;1.10;1.10;;;;;;;0.45;79.33;98366.94;4973730;28;20093;-89
2023/03/31 06:27:08;;;;;;;1.05;1.05;;;;;;;0.47;79.03;98344.50;4940063;28;20050;-93
2023/03/31 06:29:37;;;;;;;0.90;0.90;;;;;;;0.56;78.58;98347.81;4925872;29;20119;-90
2023/03/31 06:32:05;;;;;;;0.90;0.90;;;;;;;0.54;78.31;98360.47;4945169;29;20105;-89
2023/03/31 06:34:45;;;;;;;1.00;1.00;;;;;;;0.57;78.25;98357.41;4879861;29;20072;-92
2023/03/31 06:37:14;;;;;;;1.08;1.08;;;;;;;0.59;77.88;98347.44;4875609;29;20061;-89
2023/03/31 06:39:43;;;;;;;1.00;1.00;;;;;;;0.76;77.67;98370.00;4895585;29;20059;-91
2023/03/31 06:42:10;;;;;;;0.88;0.88;;;;;;;0.82;77.55;98373.69;4864085;29;20266;-88
2023/03/31 06:44:39;;;;;;;1.10;1.10;;;;;;;0.96;77.49;98367.44;4856246;29;20053;-91
2023/03/31 06:47:06;;;;;;;1.00;1.00;;;;;;;0.97;77.16;98365.59;4892873;29;20143;-89
2023/03/31 06:49:39;;;;;;;0.90;0.90;;;;;;;0.93;75.89;98369.63;4863886;29;20097;-88
2023/03/31 06:52:08;;;;;;;1.00;1.00;;;;;;;0.63;76.14;98364.59;4874456;29;20054;-90
2023/03/31 06:54:35;;;;;;;0.98;0.98;;;;;;;0.60;76.63;98359.69;4893587;29;20130;-88
2023/03/31 06:57:02;;;;;;;0.90;0.90;;;;;;;0.84;77.13;98353.06;4895910;29;20056;-89
2023/03/31 06:59:29;;;;;;;1.00;1.00;;;;;;;0.76;76.74;98335.47;4849760;29;20045;-91
2023/03/31 07:01:56;;;;;;;1.00;1.00;;;;;;;0.85;76.77;98341.41;4880160;29;20075;-90
2023/03/31 07:04:23;;;;;;;0.90;0.90;;;;;;;0.81;76.17;98334.84;4879100;29;20587;-89
2023/03/31 07:06:50;;;;;;;0.82;0.82;;;;;;;1.01;76.09;98354.38;4917911;29;20095;-88
2023/03/31 07:09:17;;;;;;;0.88;0.88;;;;;;;1.00;76.21;98346.59;4952965;29;20055;-89
2023/03/31 07:11:44;;;;;;;1.00;1.00;;;;;;;1.09;76.07;98358.69;4959447;28;20051;-83
2023/03/31 07:14:11;;;;;;;0.82;0.82;;;;;;;1.07;76.09;98352.75;4948774;28;20050;-88
2023/03/31 07:16:38;;;;;;;0.95;0.95;;;;;;;0.99;76.16;98350.28;4965384;28;20082;-90
2023/03/31 07:19:06;;;;;;;0.90;0.90;;;;;;;1.06;76.14;98337.78;4955872;28;20055;-88
2023/03/31 07:21:33;;;;;;;0.90;0.90;;;;;;;1.12;75.88;98342.34;4936586;29;20520;-88
2023/03/31 07:24:00;;;;;;;0.90;0.90;;;;;;;1.11;75.85;98327.38;4969360;28;20051;-89
2023/03/31 07:26:27;;;;;;;0.90;0.90;;;;;;;1.25;75.56;98350.34;4974232;28;20047;-90
2023/03/31 07:28:56;;;;;;;0.80;0.80;;;;;;;1.06;75.71;98330.66;4910225;29;20066;-90
2023/03/31 07:31:24;;;;;;;1.00;1.00;;;;;;;1.16;75.77;98345.41;4936944;28;20704;-91
2023/03/31 07:33:53;;;;;;;0.80;0.80;;;;;;;1.17;75.68;98339.09;4923111;29;20055;-93
2023/03/31 07:36:22;;;;;;;0.90;0.90;;;;;;;1.06;75.78;98332.47;4892924;29;20084;-93
2023/03/31 07:38:50;;;;;;;0.90;0.90;;;;;;;1.17;75.59;98337.22;4898017;29;20530;-90
2023/03/31 07:41:19;;;;;;;0.90;0.90;;;;;;;1.19;74.77;98335.19;4930164;29;20056;-86
2023/03/31 07:43:47;;;;;;;0.88;0.88;;;;;;;1.07;75.42;98318.19;4930913;29;20510;-88
2023/03/31 07:46:21;;;;;;;1.00;1.00;;;;;;;1.32;75.26;98345.03;4900394;29;20056;-89
2023/03/31 07:48:49;;;;;;;0.80;0.80;;;;;;;1.35;75.35;98335.84;4897498;29;20108;-88
2023/03/31 07:51:19;;;;;;;0.90;0.90;;;;;;;1.40;74.58;98330.75;4882085;29;20056;-89
2023/03/31 07:53:48;;;;;;;0.70;0.70;;;;;;;1.42;74.87;98349.94;4897672;29;20127;-88
2023/03/31 07:56:16;;;;;;;0.95;0.95;;;;;;;1.17;74.33;98344.41;4898087;29;20391;-89
2023/03/31 07:58:45;;;;;;;0.80;0.80;;;;;;;0.93;74.28;98313.84;4913663;29;20277;-87
2023/03/31 08:01:17;;;;;;;0.90;0.90;;;;;;;1.00;74.67;98325.31;4914773;29;20095;-88
2023/03/31 08:03:46;;;;;;;0.90;0.90;;;;;;;1.11;74.62;98330.03;4914144;29;20075;-89
2023/03/31 08:06:18;;;;;;;0.90;0.90;;;;;;;1.22;74.72;98337.44;4913318;29;20075;-88
2023/03/31 08:08:50;;;;;;;1.00;1.00;;;;;;;1.25;74.42;98329.06;4899159;29;20146;-88
2023/03/31 08:11:18;;;;;;;1.00;1.00;;;;;;;1.13;74.27;98330.66;4917370;29;20078;-89
2023/03/31 08:13:45;;;;;;;0.90;0.90;;;;;;;1.07;74.57;98318.19;4938788;29;20051;-88
2023/03/31 08:16:12;;;;;;;1.00;1.00;;;;;;;1.34;74.83;98310.25;4968598;29;20149;-87
2023/03/31 08:18:42;;;;;;;1.00;1.00;;;;;;;1.53;74.70;98309.47;4944700;29;20533;-87
2023/03/31 08:21:09;;;;;;;0.90;0.90;;;;;;;1.45;73.48;98299.03;4957721;29;20047;-89
2023/03/31 08:23:36;;;;;;;0.90;0.90;;;;;;;1.34;73.65;98302.28;4927429;29;20051;-89
2023/03/31 08:26:12;;;;;;;0.85;0.85;;;;;;;1.21;73.83;98289.78;4937131;29;20055;-89
2023/03/31 08:28:45;;;;;;;0.98;0.98;;;;;;;1.19;73.97;98284.69;4938326;29;20599;-88
2023/03/31 08:31:15;;;;;;;0.90;0.90;;;;;;;1.20;73.59;98291.63;4936682;29;20052;-90
2023/03/31 08:33:42;;;;;;;1.00;1.00;;;;;;;1.22;74.19;98284.28;4921040;29;20058;-89
2023/03/31 08:36:09;;;;;;;0.90;0.90;;;;;;;1.37;73.96;98277.94;4953615;28;20051;-89
2023/03/31 08:38:40;;;;;;;0.90;0.90;;;;;;;1.19;73.45;98263.44;4922768;29;20138;-88
2023/03/31 08:41:25;;;;;;;0.77;0.77;;;;;;;1.37;73.34;98259.34;4914082;29;20059;-88
2023/03/31 08:43:55;;;;;;;1.00;1.00;;;;;;;1.39;73.34;98259.97;4965776;29;20043;-89
2023/03/31 08:46:22;;;;;;;0.80;0.80;;;;;;;1.46;72.94;98282.06;4917144;29;20110;-89
2023/03/31 08:48:53;;;;;;;0.88;0.88;;;;;;;1.37;73.00;98251.38;4959490;29;20117;-89
2023/03/31 08:51:32;;;;;;;0.90;0.90;;;;;;;1.58;73.20;98250.38;4940291;29;20498;-89
2023/03/31 08:54:02;;;;;;;0.80;0.80;;;;;;;1.80;72.57;98264.25;4940350;29;20114;-89
2023/03/31 08:56:36;;;;;;;0.82;0.82;;;;;;;1.60;72.42;98269.59;4940666;29;20098;-89
2023/03/31 08:59:05;;;;;;;0.90;0.90;;;;;;;1.43;72.92;98250.56;4924968;29;20055;-88
2023/03/31 09:01:57;;;;;;;1.00;1.00;;;;;;;1.53;73.22;98269.59;4926131;29;20047;-88
2023/03/31 09:04:55;;;;;;;0.93;0.93;;;;;;;1.62;73.25;98262.22;4941778;29;20086;-88
2023/03/31 09:07:51;;;;;;;1.00;1.00;;;;;;;1.81;73.12;98257.91;4958555;29;20146;-89
2023/03/31 09:10:18;;;;;;;1.00;1.00;;;;;;;1.93;72.76;98248.28;4946249;28;20481;-88
2023/03/31 09:13:30;;;;;;;1.00;1.00;;;;;;;1.88;72.23;98248.91;5002735;28;20133;-88
2023/03/31 09:16:23;;;;;;;0.90;0.90;;;;;;;1.63;72.87;98242.59;4965957;28;20130;-89
2023/03/31 09:18:53;;;;;;;0.90;0.90;;;;;;;1.56;72.96;98247.91;5005342;28;20086;-88
2023/03/31 09:21:26;;;;;;;1.00;1.00;;;;;;;1.59;73.35;98246.66;4977762;28;20456;-88
2023/03/31 09:24:02;;;;;;;1.00;1.00;;;;;;;1.42;73.11;98217.00;4962660;28;20050;-90
2023/03/31 09:26:36;;;;;;;0.80;0.80;;;;;;;1.47;73.54;98233.19;4964416;28;20050;-90
2023/03/31 09:29:09;;;;;;;1.00;1.00;;;;;;;1.50;73.81;98212.31;4978392;28;20105;-88
2023/03/31 09:31:37;;;;;;;0.82;0.82;;;;;;;1.71;73.49;98231.72;4978843;28;20477;-90
2023/03/31 09:34:13;;;;;;;0.90;0.90;;;;;;;1.78;73.36;98224.56;4939566;28;20544;-86
2023/03/31 09:36:40;;;;;;;1.00;1.00;;;;;;;1.54;73.02;98211.91;4951284;28;20137;-88
2023/03/31 09:39:14;;;;;;;0.90;0.90;;;;;;;1.79;73.37;98210.22;4957831;28;20529;-85
2023/03/31 09:41:45;;;;;;;0.90;0.90;;;;;;;1.83;72.68;98194.69;4956162;28;20422;-85
2023/03/31 09:44:37;;;;;;;0.82;0.82;;;;;;;1.99;72.79;98199.53;4946985;28;20059;-85
2023/03/31 09:47:37;;;;;;;0.90;0.90;;;;;;;2.06;72.87;98202.19;4966675;28;20047;-88
2023/03/31 09:50:06;;;;;;;0.80;0.80;;;;;;;2.09;72.54;98185.81;4949161;28;20046;-86
2023/03/31 09:52:39;;;;;;;0.90;0.90;;;;;;;2.16;72.17;98192.72;4972461;28;20047;-86
2023/03/31 09:55:23;;;;;;;0.90;0.90;;;;;;;2.07;72.16;98183.34;4936749;29;20149;-89
2023/03/31 09:58:06;;;;;;;1.00;1.00;;;;;;;2.12;72.32;98199.50;4924156;28;20054;-87
2023/03/31 10:00:34;;;;;;;1.00;1.00;;;;;;;2.13;72.63;98206.47;4941262;28;20055;-87
2023/03/31 10:03:06;;;;;;;1.00;1.00;;;;;;;1.94;72.52;98178.06;4952380;28;20055;-86
2023/03/31 10:05:41;;;;;;;0.90;0.90;;;;;;;1.99;73.00;98196.06;4952555;29;20055;-86
2023/03/31 10:08:23;;;;;;;0.90;0.90;;;;;;;2.00;73.00;98195.03;4936021;29;20082;-85
2023/03/31 10:10:57;;;;;;;0.80;0.80;;;;;;;1.90;73.06;98184.81;4921189;29;20159;-87
2023/03/31 10:13:28;;;;;;;0.82;0.82;;;;;;;1.84;73.12;98167.03;4938112;28;20071;-88
2023/03/31 10:16:07;;;;;;;0.82;0.82;;;;;;;1.88;73.42;98169.06;4954405;28;20521;-88
2023/03/31 10:18:40;;;;;;;0.90;0.90;;;;;;;2.00;73.14;98185.22;4969988;28;20050;-87
2023/03/31 10:21:25;;;;;;;0.90;0.90;;;;;;;1.90;73.29;98168.84;4944745;29;20082;-87
2023/03/31 10:23:54;;;;;;;0.90;0.90;;;;;;;1.83;73.16;98158.25;4928411;28;20058;-88
2023/03/31 10:26:27;;;;;;;0.90;0.90;;;;;;;1.87;73.72;98171.94;4931944;29;20074;-86
2023/03/31 10:28:55;;;;;;;0.90;0.90;;;;;;;1.92;73.77;98166.81;4960953;28;20058;-86
2023/03/31 10:31:26;;;;;;;0.90;0.90;;;;;;;2.01;73.66;98175.38;4945571;28;20075;-86
2023/03/31 10:33:54;;;;;;;0.90;0.90;;;;;;;1.98;73.35;98150.00;4941922;28;21835;-90
2023/03/31 10:36:26;;;;;;;0.90;0.90;;;;;;;2.19;73.26;98161.41;4597631;28;10000067;-90
2023/03/31 10:38:54;;;;;;;0.95;0.95;;;;;;;2.24;72.69;98169.56;4954780;28;20157;-92
2023/03/31 10:41:25;;;;;;;0.90;0.90;;;;;;;2.06;73.07;98128.47;4954341;28;20081;-86
2023/03/31 10:43:54;;;;;;;0.90;0.90;;;;;;;2.25;72.61;98156.03;4945634;29;20164;-85
2023/03/31 10:46:42;;;;;;;0.88;0.88;;;;;;;2.30;72.83;98161.53;4963627;28;20121;-85
2023/03/31 10:49:26;;;;;;;0.90;0.90;;;;;;;2.13;72.82;98150.56;4939262;28;20104;-85
2023/03/31 10:51:56;;;;;;;0.90;0.90;;;;;;;2.06;73.19;98154.28;4955100;28;20051;-85
2023/03/31 10:54:24;;;;;;;0.82;0.82;;;;;;;1.92;73.74;98137.53;4967221;28;20098;-85
2023/03/31 10:56:57;;;;;;;0.90;0.90;;;;;;;1.90;74.16;98144.91;4966131;28;20098;-86
2023/03/31 10:59:36;;;;;;;0.80;0.80;;;;;;;2.03;74.07;98144.06;4947058;28;20050;-86
2023/03/31 11:02:10;;;;;;;0.90;0.90;;;;;;;1.92;74.85;98138.38;4903936;29;20123;-85
2023/03/31 11:05:04;;;;;;;0.90;0.90;;;;;;;1.86;75.65;98133.06;4953225;29;20062;-85
2023/03/31 11:07:37;;;;;;;0.88;0.88;;;;;;;1.85;76.39;98128.75;4955871;28;20058;-86
2023/03/31 11:10:20;;;;;;;0.90;0.90;;;;;;;1.81;76.84;98123.03;4961405;28;20055;-85
2023/03/31 11:12:59;;;;;;;0.80;0.80;;;;;;;1.92;77.13;98129.53;4940076;28;20049;-85
2023/03/31 11:15:41;;;;;;;0.90;0.90;;;;;;;1.94;76.92;98123.00;4932996;28;20457;-85
2023/03/31 11:18:32;;;;;;;0.90;0.90;;;;;;;1.86;76.97;98115.25;4919859;29;20063;-85
2023/03/31 11:21:25;;;;;;;1.00;1.00;;;;;;;2.02;76.80;98107.81;4949655;28;20428;-85
2023/03/31 11:24:08;;;;;;;0.90;0.90;;;;;;;2.01;77.05;98099.03;4951102;28;20047;-86
2023/03/31 11:26:56;;;;;;;0.93;0.93;;;;;;;2.09;76.81;98101.44;4962811;28;20050;-86
2023/03/31 11:29:34;;;;;;;0.80;0.80;;;;;;;2.10;76.78;98104.91;4943182;28;20517;-86
2023/03/31 11:32:32;;;;;;;0.90;0.90;;;;;;;2.15;77.01;98108.59;4951264;28;20063;-87
2023/03/31 11:35:31;;;;;;;0.90;0.90;;;;;;;2.16;77.08;98112.06;4944282;29;20055;-87
2023/03/31 11:38:23;;;;;;;0.80;0.80;;;;;;;2.12;77.03;98101.00;4959958;28;20108;-84
2023/03/31 11:40:58;;;;;;;1.00;1.00;;;;;;;2.17;77.16;98101.19;4946790;29;20526;-84
2023/03/31 11:43:50;;;;;;;0.90;0.90;;;;;;;2.18;77.25;98099.38;4961864;29;20138;-84
2023/03/31 11:46:46;;;;;;;0.85;0.85;;;;;;;2.27;77.07;98099.91;4926962;29;20134;-85
2023/03/31 11:49:37;;;;;;;0.90;0.90;;;;;;;2.13;77.17;98084.03;4955150;28;20422;-87
2023/03/31 11:52:18;;;;;;;0.90;0.90;;;;;;;2.19;77.33;98092.19;4958887;28;20047;-86
2023/03/31 11:54:59;;;;;;;1.00;1.00;;;;;;;2.11;77.59;98087.94;4949265;28;20058;-92
2023/03/31 11:57:37;;;;;;;0.90;0.90;;;;;;;2.03;77.47;98066.88;4946626;28;20057;-86
2023/03/31 12:00:17;;;;;;;;;;;;;;;2.15;77.35;98089.13;4939117;28;20478;-85
2023/03/31 12:03:06;;;;;;;0.90;0.90;;;;;;;2.13;77.26;98089.34;4955372;28;20373;-85
2023/03/31 12:05:43;;;;;;;0.80;0.80;;;;;;;2.14;77.34;98079.50;4953665;28;20050;-89
2023/03/31 12:08:18;;;;;;;0.90;0.90;;;;;;;2.00;77.48;98049.50;4943932;29;20470;-87